Terminal Aerodrome Forecast
Issued by NWS

Home | Current Version | Previous Version | Text Only | Print | Product List | Glossary On
Versions: 1 2 3 4 5 6 7 8 9 10 11 12 13 14 15 16 17 18 19 20 21 22 23 24 25 26 27
523
FTUS41 KRNK 141722
TAFBCB
TAF
KBCB 141722Z 1418/1518 14006KT P6SM SCT040 OVC080
     FM142200 14006KT P6SM -SN SCT018 OVC035
     FM150100 13008KT 2SM -SN BR OVC018
     FM150400 14006KT 1SM -SN BR OVC007
     FM150900 13005KT 1/2SM SN FG OVC004=

USA.gov is the U.S. government's official web portal to all federal, state and local government web resources and services.